createdAt,value
2022-10-19T00:01:26.305Z,99831.28
2022-10-19T00:04:29.085Z,99825.87
2022-10-19T00:07:31.478Z,99830.53
2022-10-19T00:10:34.261Z,99822.31
2022-10-19T00:13:36.992Z,99819.50
2022-10-19T00:16:39.152Z,99823.34
2022-10-19T00:19:41.287Z,99809.16
2022-10-19T00:22:43.463Z,99816.00
2022-10-19T00:25:56.009Z,99815.75
2022-10-19T00:28:58.437Z,99794.53
2022-10-19T00:32:00.589Z,99793.63
2022-10-19T00:35:03.743Z,99789.97
2022-10-19T00:38:05.861Z,99797.47
2022-10-19T00:41:08.525Z,99785.03
2022-10-19T00:44:13.754Z,99776.44
2022-10-19T00:47:16.642Z,99777.44
2022-10-19T00:50:18.887Z,99784.66
2022-10-19T00:53:21.400Z,99769.75
2022-10-19T00:56:23.707Z,99764.37
2022-10-19T00:59:27.132Z,99759.06
2022-10-19T01:02:29.357Z,99757.50
2022-10-19T01:05:32.974Z,99756.50
2022-10-19T01:08:35.118Z,99755.25
2022-10-19T01:11:43.082Z,99757.31
2022-10-19T01:15:06.591Z,99744.16
2022-10-19T01:18:40.352Z,99744.44
2022-10-19T01:21:50.996Z,99742.50
2022-10-19T01:25:15.073Z,99725.75
2022-10-19T01:28:20.080Z,99735.63
2022-10-19T01:31:44.618Z,99723.19
2022-10-19T01:34:52.196Z,99719.09
2022-10-19T01:38:12.746Z,99719.16
2022-10-19T01:41:23.778Z,99718.97
2022-10-19T01:44:40.044Z,99720.19
2022-10-19T01:47:59.547Z,99713.22
2022-10-19T01:51:12.819Z,99719.03
2022-10-19T01:54:16.001Z,99719.78
2022-10-19T01:57:23.981Z,99723.12
2022-10-19T02:00:27.024Z,99718.78
2022-10-19T02:03:29.544Z,99711.94
2022-10-19T02:06:31.742Z,99717.56
2022-10-19T02:09:33.939Z,99719.47
2022-10-19T02:12:37.015Z,99710.69
2022-10-19T02:15:41.542Z,99712.28
2022-10-19T02:18:46.320Z,99720.16
2022-10-19T02:21:48.931Z,99713.50
2022-10-19T02:24:51.097Z,99727.94
2022-10-19T02:27:53.249Z,99720.19
2022-10-19T02:30:55.863Z,99719.09
2022-10-19T02:33:58.329Z,99712.53
2022-10-19T02:37:00.519Z,99706.91
2022-10-19T02:40:03.574Z,99706.47
2022-10-19T02:43:10.672Z,99707.09
2022-10-19T02:46:38.060Z,99706.59
2022-10-19T02:49:41.190Z,99709.56
2022-10-19T02:52:43.339Z,99716.19
2022-10-19T02:55:47.990Z,99705.91
2022-10-19T02:58:50.123Z,99711.56
2022-10-19T03:01:52.712Z,99709.22
2022-10-19T03:04:54.825Z,99705.84
2022-10-19T03:07:57.033Z,99705.91
2022-10-19T03:10:59.297Z,99710.19
2022-10-19T03:14:01.675Z,99712.50
2022-10-19T03:17:04.266Z,99715.09
2022-10-19T03:20:06.962Z,99721.03
2022-10-19T03:23:09.133Z,99725.38
2022-10-19T03:26:14.476Z,99723.16
2022-10-19T03:29:16.618Z,99713.69
2022-10-19T03:32:18.764Z,99711.56
2022-10-19T03:35:20.931Z,99711.50
2022-10-19T03:38:23.073Z,99721.59
2022-10-19T03:41:27.674Z,99720.66
2022-10-19T03:44:29.815Z,99725.66
2022-10-19T03:47:32.239Z,99723.03
2022-10-19T03:50:34.700Z,99732.66
2022-10-19T03:53:37.581Z,99729.06
2022-10-19T03:56:39.723Z,99713.63
2022-10-19T03:59:41.842Z,99716.91
2022-10-19T04:02:44.036Z,99722.84
2022-10-19T04:05:46.150Z,99714.94
2022-10-19T04:08:49.206Z,99719.41
2022-10-19T04:11:51.459Z,99724.84
2022-10-19T04:14:57.272Z,99718.97
2022-10-19T04:17:59.765Z,99716.63
2022-10-19T04:21:04.684Z,99727.13
2022-10-19T04:24:17.665Z,99718.72
2022-10-19T04:27:19.850Z,99722.56
2022-10-19T04:30:21.986Z,99721.50
2022-10-19T04:33:24.150Z,99720.66
2022-10-19T04:36:26.415Z,99715.19
2022-10-19T04:39:28.536Z,99718.84
2022-10-19T04:42:30.745Z,99709.34
2022-10-19T04:45:35.444Z,99712.06
2022-10-19T04:48:38.802Z,99712.63
2022-10-19T04:51:40.942Z,99717.59
2022-10-19T04:54:43.062Z,99712.53
2022-10-19T04:57:45.216Z,99717.38
2022-10-19T05:00:47.456Z,99720.41
2022-10-19T05:07:04.153Z,99719.66
2022-10-19T05:10:08.841Z,99737.44
2022-10-19T05:13:10.969Z,99742.81
2022-10-19T05:16:19.045Z,99746.25
2022-10-19T05:19:21.352Z,99731.19
2022-10-19T05:22:23.659Z,99749.63
2022-10-19T05:25:25.837Z,99747.53
2022-10-19T05:28:28.529Z,99748.28
2022-10-19T05:31:32.694Z,99757.69
2022-10-19T05:34:34.841Z,99759.41
2022-10-19T05:37:37.205Z,99749.47
2022-10-19T05:40:44.943Z,99764.37
2022-10-19T05:43:47.940Z,99767.75
2022-10-19T05:46:51.474Z,99765.47
2022-10-19T05:49:53.595Z,99770.13
2022-10-19T05:52:55.679Z,99766.28
2022-10-19T05:55:57.873Z,99772.66
2022-10-19T05:59:02.132Z,99766.78
2022-10-19T06:02:04.326Z,99762.97
2022-10-19T06:05:07.167Z,99770.44
2022-10-19T06:08:09.276Z,99787.81
2022-10-19T06:11:14.706Z,99779.53
2022-10-19T06:14:16.882Z,99789.69
2022-10-19T06:17:19.014Z,99796.94
2022-10-19T06:20:21.148Z,99794.22
2022-10-19T06:23:23.362Z,99804.44
2022-10-19T06:26:26.534Z,99805.06
2022-10-19T06:29:28.656Z,99804.03
2022-10-19T06:32:30.899Z,99811.75
2022-10-19T06:35:33.070Z,99807.84
2022-10-19T06:38:35.269Z,99813.50
2022-10-19T06:41:37.470Z,99816.06
2022-10-19T06:44:39.579Z,99823.91
2022-10-19T06:47:41.830Z,99830.31
2022-10-19T06:50:44.023Z,99825.59
2022-10-19T06:53:46.244Z,99826.78
2022-10-19T06:59:55.660Z,99833.31
2022-10-19T07:02:59.221Z,99837.88
2022-10-19T07:06:03.682Z,99839.13
2022-10-19T07:09:06.252Z,99845.94
2022-10-19T07:12:10.772Z,99848.00
2022-10-19T07:15:12.886Z,99860.31
2022-10-19T07:18:15.326Z,99861.53
2022-10-19T07:21:18.281Z,99867.47
2022-10-19T07:24:20.455Z,99868.72
2022-10-19T07:27:22.599Z,99878.41
2022-10-19T07:30:24.806Z,99873.69
2022-10-19T07:33:27.525Z,99889.44
2022-10-19T07:36:31.464Z,99887.75
2022-10-19T07:39:33.621Z,99897.81
2022-10-19T07:42:37.703Z,99903.47
2022-10-19T07:45:39.824Z,99895.22
2022-10-19T07:48:42.642Z,99890.28
2022-10-19T07:51:45.645Z,99890.88
2022-10-19T07:54:49.523Z,99883.88
2022-10-19T07:57:51.680Z,99883.34
2022-10-19T08:01:00.367Z,99873.75
2022-10-19T08:07:24.667Z,99869.81
2022-10-19T08:10:26.856Z,99866.28
2022-10-19T08:13:29.038Z,99868.25
2022-10-19T08:16:38.839Z,99866.16
2022-10-19T08:19:43.504Z,99870.66
2022-10-19T08:22:46.842Z,99865.19
2022-10-19T08:25:49.783Z,99874.09
2022-10-19T08:28:51.937Z,99869.25
2022-10-19T08:31:54.422Z,99863.16
2022-10-19T08:34:56.661Z,99871.72
2022-10-19T08:37:59.108Z,99874.94
2022-10-19T08:41:15.229Z,99872.78
2022-10-19T08:44:41.769Z,99876.75
2022-10-19T08:48:11.020Z,99881.00
2022-10-19T08:51:13.934Z,99879.91
2022-10-19T08:54:17.757Z,99877.78
2022-10-19T08:57:38.057Z,99889.09
2022-10-19T09:00:50.187Z,99880.47
2022-10-19T09:04:30.699Z,99875.59
2022-10-19T09:07:44.995Z,99875.47
2022-10-19T09:10:50.556Z,99876.03
2022-10-19T09:14:05.098Z,99876.59
2022-10-19T09:17:13.158Z,99865.38
2022-10-19T09:20:19.702Z,99875.75
2022-10-19T09:23:34.678Z,99875.31
2022-10-19T09:26:54.226Z,99878.59
2022-10-19T09:30:03.843Z,99878.09
2022-10-19T09:33:06.652Z,99878.03
2022-10-19T09:36:14.999Z,99877.88
2022-10-19T09:39:29.555Z,99876.12
2022-10-19T09:42:34.305Z,99878.25
2022-10-19T09:45:39.341Z,99877.66
2022-10-19T09:48:53.375Z,99870.53
2022-10-19T09:51:55.498Z,99870.87
2022-10-19T09:55:07.425Z,99868.16
2022-10-19T09:58:18.188Z,99876.34
2022-10-19T10:01:46.821Z,99868.88
2022-10-19T10:04:57.491Z,99867.69
2022-10-19T10:07:59.835Z,99861.84
2022-10-19T10:11:10.781Z,99860.28
2022-10-19T10:14:15.854Z,99850.44
2022-10-19T10:17:22.927Z,99844.69
2022-10-19T10:20:28.473Z,99831.44
2022-10-19T10:23:34.018Z,99839.06
2022-10-19T10:26:50.346Z,99831.59
2022-10-19T10:33:13.550Z,99825.72
2022-10-19T10:36:27.837Z,99817.63
2022-10-19T10:39:30.605Z,99820.78
2022-10-19T10:42:37.465Z,99826.94
2022-10-19T10:45:47.779Z,99823.06
2022-10-19T10:48:58.732Z,99818.81
2022-10-19T10:52:05.389Z,99807.88
2022-10-19T10:55:10.303Z,99798.69
2022-10-19T10:58:19.912Z,99797.00
2022-10-19T11:01:24.020Z,99787.34
2022-10-19T11:04:41.315Z,99786.97
2022-10-19T11:07:46.809Z,99786.00
2022-10-19T11:11:07.787Z,99786.84
2022-10-19T11:14:28.356Z,99789.38
2022-10-19T11:17:33.448Z,99788.25
2022-10-19T11:20:37.173Z,99786.25
2022-10-19T11:23:51.775Z,99778.31
2022-10-19T11:26:59.905Z,99776.16
2022-10-19T11:30:17.697Z,99761.50
2022-10-19T11:34:02.516Z,99764.44
2022-10-19T11:37:13.737Z,99763.03
2022-10-19T11:40:59.680Z,99769.62
2022-10-19T11:44:19.079Z,99758.78
2022-10-19T11:47:42.091Z,99750.59
2022-10-19T11:50:58.932Z,99755.31
2022-10-19T11:54:56.455Z,99746.34
2022-10-19T11:58:45.420Z,99757.13
2022-10-19T12:02:06.093Z,99736.19
2022-10-19T12:05:13.704Z,99742.50
2022-10-19T12:11:45.808Z,99744.09
2022-10-19T12:14:52.065Z,99732.41
2022-10-19T12:17:57.834Z,99731.78
2022-10-19T12:21:02.788Z,99721.63
2022-10-19T12:24:14.971Z,99731.34
2022-10-19T12:27:18.708Z,99732.31
2022-10-19T12:30:23.174Z,99731.78
2022-10-19T12:33:31.630Z,99718.63
2022-10-19T12:36:33.703Z,99708.78
2022-10-19T12:39:35.979Z,99709.16
2022-10-19T12:42:51.996Z,99717.31
2022-10-19T12:46:03.572Z,99712.66
2022-10-19T12:49:30.477Z,99710.81
2022-10-19T12:52:44.706Z,99704.63
2022-10-19T12:55:47.332Z,99699.84
2022-10-19T12:58:53.171Z,99706.72
2022-10-19T13:01:56.698Z,99709.31
2022-10-19T13:04:59.233Z,99717.56
2022-10-19T13:08:04.796Z,99711.97
2022-10-19T13:11:14.694Z,99710.31
2022-10-19T13:14:19.608Z,99696.28
2022-10-19T13:17:34.406Z,99700.84
2022-10-19T13:23:44.966Z,99700.97
2022-10-19T13:26:47.117Z,99700.75
2022-10-19T13:29:49.518Z,99701.81
2022-10-19T13:32:52.193Z,99702.31
2022-10-19T13:36:00.532Z,99702.44
2022-10-19T13:39:06.042Z,99702.31
2022-10-19T13:42:24.035Z,99697.91
2022-10-19T13:45:26.896Z,99699.88
2022-10-19T13:48:37.561Z,99706.16
2022-10-19T13:51:51.727Z,99694.50
2022-10-19T13:55:18.576Z,99701.16
2022-10-19T13:58:48.260Z,99693.59
2022-10-19T14:01:53.048Z,99698.56
2022-10-19T14:05:24.680Z,99699.16
2022-10-19T14:09:11.736Z,99692.88
2022-10-19T14:12:23.919Z,99698.47
2022-10-19T14:15:28.954Z,99700.78
2022-10-19T14:18:33.621Z,99698.22
2022-10-19T14:21:37.022Z,99696.81
2022-10-19T14:24:39.170Z,99692.28
2022-10-19T14:27:41.325Z,99686.53
2022-10-19T14:30:43.857Z,99680.91
2022-10-19T14:33:47.712Z,99678.12
2022-10-19T14:36:50.663Z,99684.19
2022-10-19T14:39:59.848Z,99688.09
2022-10-19T14:43:20.365Z,99686.47
2022-10-19T14:46:26.575Z,99687.50
2022-10-19T14:49:28.885Z,99683.88
2022-10-19T14:52:37.761Z,99687.50
2022-10-19T14:55:41.050Z,99686.78
2022-10-19T14:59:18.579Z,99685.62
2022-10-19T15:02:28.244Z,99686.66
2022-10-19T15:05:33.748Z,99686.56
2022-10-19T15:08:39.021Z,99676.69
2022-10-19T15:11:44.175Z,99685.12
2022-10-19T15:14:47.215Z,99685.62
2022-10-19T15:18:00.181Z,99691.72
2022-10-19T15:21:12.873Z,99690.19
2022-10-19T15:24:35.937Z,99689.41
2022-10-19T15:27:50.035Z,99710.22
2022-10-19T15:31:00.600Z,99705.16
2022-10-19T15:34:03.790Z,99708.72
2022-10-19T15:37:08.316Z,99702.19
2022-10-19T15:40:21.982Z,99700.81
2022-10-19T15:43:30.541Z,99712.09
2022-10-19T15:46:48.946Z,99715.53
2022-10-19T15:49:55.777Z,99720.31
2022-10-19T15:52:59.817Z,99721.97
2022-10-19T15:59:15.414Z,99730.41
2022-10-19T16:02:17.538Z,99730.75
2022-10-19T16:05:19.816Z,99732.28
2022-10-19T16:08:21.937Z,99747.81
2022-10-19T16:11:25.122Z,99758.75
2022-10-19T16:14:28.408Z,99749.75
2022-10-19T16:17:30.638Z,99746.50
2022-10-19T16:20:32.824Z,99740.34
2022-10-19T16:23:41.092Z,99749.78
2022-10-19T16:26:44.582Z,99759.25
2022-10-19T16:29:46.708Z,99761.97
2022-10-19T16:32:49.679Z,99771.84
2022-10-19T16:35:51.857Z,99775.53
2022-10-19T16:38:54.117Z,99776.38
2022-10-19T16:41:56.322Z,99787.00
2022-10-19T16:44:58.493Z,99777.75
2022-10-19T16:48:00.657Z,99783.34
2022-10-19T16:51:05.549Z,99791.94
2022-10-19T16:54:12.326Z,99792.78
2022-10-19T16:57:14.717Z,99791.59
2022-10-19T17:00:16.895Z,99802.06
2022-10-19T17:03:19.059Z,99798.38
2022-10-19T17:06:21.677Z,99796.53
2022-10-19T17:09:42.271Z,99793.03
2022-10-19T17:12:44.873Z,99808.41
2022-10-19T17:15:47.129Z,99809.44
2022-10-19T17:18:49.934Z,99813.34
2022-10-19T17:21:55.402Z,99807.38
2022-10-19T17:24:57.878Z,99813.13
2022-10-19T17:28:00.227Z,99808.41
2022-10-19T17:31:13.820Z,99813.09
2022-10-19T17:34:17.646Z,99814.53
2022-10-19T17:37:20.489Z,99818.63
2022-10-19T17:40:22.926Z,99828.88
2022-10-19T17:43:25.353Z,99842.00
2022-10-19T17:46:30.571Z,99837.25
2022-10-19T17:49:32.955Z,99845.84
2022-10-19T17:52:35.364Z,99842.31
2022-10-19T17:55:37.741Z,99838.12
2022-10-19T17:58:40.131Z,99831.94
2022-10-19T18:01:42.878Z,99823.13
2022-10-19T18:04:45.321Z,99827.31
2022-10-19T18:07:49.220Z,99825.16
2022-10-19T18:11:12.485Z,99826.88
2022-10-19T18:14:16.665Z,99832.81
2022-10-19T18:17:21.620Z,99847.69
2022-10-19T18:20:25.258Z,99849.47
2022-10-19T18:23:27.741Z,99851.44
2022-10-19T18:26:32.670Z,99857.19
2022-10-19T18:29:35.434Z,99871.31
2022-10-19T18:32:38.027Z,99884.97
2022-10-19T18:35:40.988Z,99880.06
2022-10-19T18:38:43.966Z,99877.50
2022-10-19T18:41:48.292Z,99890.31
2022-10-19T18:44:50.710Z,99887.59
2022-10-19T18:47:53.791Z,99897.19
2022-10-19T18:50:57.479Z,99897.03
2022-10-19T18:53:59.930Z,99884.63
2022-10-19T18:57:02.331Z,99898.50
2022-10-19T19:00:05.926Z,99908.94
2022-10-19T19:03:08.682Z,99906.84
2022-10-19T19:06:12.907Z,99889.94
2022-10-19T19:09:15.340Z,99886.00
2022-10-19T19:12:17.873Z,99900.19
2022-10-19T19:15:20.417Z,99907.84
2022-10-19T19:18:23.222Z,99908.31
2022-10-19T19:21:27.321Z,99911.06
2022-10-19T19:24:32.133Z,99905.56
2022-10-19T19:27:34.933Z,99894.37
2022-10-19T19:30:44.513Z,99891.00
2022-10-19T19:33:47.520Z,99898.69
2022-10-19T19:36:49.929Z,99901.00
2022-10-19T19:39:52.400Z,99905.84
2022-10-19T19:42:55.070Z,99917.97
2022-10-19T19:46:04.756Z,99924.97
2022-10-19T19:49:10.732Z,99934.00
2022-10-19T19:52:13.249Z,99931.28
2022-10-19T19:55:16.546Z,99934.38
2022-10-19T19:58:20.047Z,99936.66
2022-10-19T20:01:22.730Z,99941.25
2022-10-19T20:04:25.223Z,99947.78
2022-10-19T20:07:27.401Z,99947.25
2022-10-19T20:10:29.881Z,99947.34
2022-10-19T20:13:32.534Z,99956.97
2022-10-19T20:16:35.005Z,99957.56
2022-10-19T20:19:37.169Z,99962.78
2022-10-19T20:22:39.763Z,99964.41
2022-10-19T20:25:42.069Z,99967.78
2022-10-19T20:28:44.502Z,99969.44
2022-10-19T20:31:47.844Z,99974.72
2022-10-19T20:34:52.135Z,99978.84
2022-10-19T20:37:57.802Z,99975.22
2022-10-19T20:41:06.937Z,99991.59
2022-10-19T20:44:10.522Z,99986.81
2022-10-19T20:47:12.669Z,99990.44
2022-10-19T20:50:17.014Z,99996.53
2022-10-19T20:53:21.466Z,99995.88
2022-10-19T20:56:26.520Z,99999.97
2022-10-19T20:59:28.987Z,99998.00
2022-10-19T21:02:31.143Z,100007.22
2022-10-19T21:05:33.287Z,100005.09
2022-10-19T21:08:35.949Z,100011.50
2022-10-19T21:11:39.758Z,100013.09
2022-10-19T21:14:43.064Z,100013.28
2022-10-19T21:17:47.441Z,100004.53
2022-10-19T21:20:49.550Z,100005.34
2022-10-19T21:23:55.204Z,100006.16
2022-10-19T21:26:57.343Z,100015.09
2022-10-19T21:29:59.482Z,100005.09
2022-10-19T21:33:01.661Z,100011.75
2022-10-19T21:36:05.735Z,100018.97
2022-10-19T21:39:07.922Z,100017.75
2022-10-19T21:42:10.041Z,100014.97
2022-10-19T21:45:29.434Z,100017.25
2022-10-19T21:48:33.736Z,100020.19
2022-10-19T21:51:48.353Z,100019.47
2022-10-19T21:54:50.528Z,100027.28
2022-10-19T21:57:52.697Z,100028.38
2022-10-19T22:00:54.884Z,100030.13
2022-10-19T22:04:02.281Z,100029.19
2022-10-19T22:07:05.243Z,100027.91
2022-10-19T22:10:07.651Z,100028.94
2022-10-19T22:13:09.796Z,100038.13
2022-10-19T22:16:14.970Z,100027.69
2022-10-19T22:19:17.681Z,100031.62
2022-10-19T22:22:19.867Z,100025.31
2022-10-19T22:25:22.022Z,100024.03
2022-10-19T22:28:24.222Z,100022.69
2022-10-19T22:31:28.043Z,100022.72
2022-10-19T22:34:30.467Z,100019.66
2022-10-19T22:37:34.505Z,100018.28
2022-10-19T22:40:36.622Z,100017.66
2022-10-19T22:43:38.770Z,100015.28
2022-10-19T22:46:40.875Z,100019.66
2022-10-19T22:49:43.006Z,100023.03
2022-10-19T22:52:45.136Z,100017.84
2022-10-19T22:55:47.459Z,100014.53
2022-10-19T22:58:49.658Z,100020.28
2022-10-19T23:01:51.884Z,100021.56
2022-10-19T23:04:54.087Z,100014.69
2022-10-19T23:07:56.244Z,100027.50
2022-10-19T23:10:58.422Z,100030.97
2022-10-19T23:14:00.579Z,100028.47
2022-10-19T23:17:02.771Z,100036.56
2022-10-19T23:20:05.346Z,100033.34
2022-10-19T23:23:07.522Z,100038.75
2022-10-19T23:26:15.859Z,100034.16
2022-10-19T23:29:18.001Z,100032.66
2022-10-19T23:32:20.154Z,100047.28
2022-10-19T23:35:22.305Z,100041.31
2022-10-19T23:38:24.443Z,100040.03
2022-10-19T23:41:27.053Z,100030.72
2022-10-19T23:44:29.250Z,100041.84
2022-10-19T23:47:31.368Z,100043.34
2022-10-19T23:50:33.500Z,100041.34
2022-10-19T23:53:40.749Z,100054.78
2022-10-19T23:56:43.597Z,100059.69
2022-10-19T23:59:46.181Z,100054.88
